KCPT

Cleburne Regional Airport

Cleburne, Texas, USA
METAR KCPT 190455Z AUTO 16005KT 10SM CLR 26/22 A2996 RMK AO2
Observed Flight Rules
Sep-19 @ 04:55 UTC (19 minutes ago) Visual Flight Rules
Wind Visibility Clouds
160° at 5 knots 10 miles
  • Clear skies
Temperatures Readings
Current 26°C / 79°F
Dewpoint 22°C / 72°F
Humidity 79%
Altimeter 29.96" Hg
Pressure 1015 hPa
Elevation 260
METAR KCPT 190455Z AUTO 16005KT 10SM CLR 26/22 A2996 RMK AO2
Observed Flight Rules
Sep-19 @ 04:55 UTC
(19 minutes ago)
VFR
Wind Visibility
160° at 5 knots 10 miles
Clouds
  • Clear skies
Temperature Dewpoint
26°C / 79°F 22°C / 72°F
Humidity Altimeter Pressure
79% 29.96" Hg 1015 hPa